This is the latest recevied weather packets stored in our database for station/object N3SBK. If no packets are shown the sender has not sent any weather packets the latest 10 day(s).
| Time | Temp. | Humidity | Pressure | Rain* | Wind** | Luminosity | Snow |
|---|---|---|---|---|---|---|---|
| 1777122169 | 13.89° C | 88% | 1000.3 hPa | 1.78 mm | - | 34 W/m² | - |
| 1777121864 | 14.44° C | 87% | 1000.4 hPa | 1.27 mm | - | 32 W/m² | - |
| 1777121561 | 14.44° C | 86% | 1000.2 hPa | 1.27 mm | - | 22 W/m² | - |
| 1777121258 | 14.44° C | 85% | 1000.3 hPa | 0 mm | - | 21 W/m² | - |
| 1777120954 | 14.44° C | 86% | 1000.2 hPa | 0 mm | - | 24 W/m² | - |
| 1777120651 | 14.44° C | 85% | 999.8 hPa | 0 mm | - | 37 W/m² | - |
| 1777120346 | 14.44° C | 84% | 1000 hPa | 0 mm | - | 35 W/m² | - |
| 1777120041 | 15° C | 82% | 999.5 hPa | 0 mm | - | 24 W/m² | - |
| 1777119738 | 15.56° C | 78% | 999.6 hPa | 0 mm | - | 17 W/m² | - |
| 1777119434 | 16.67° C | 73% | 999.8 hPa | 0 mm | - | 12 W/m² | - |
| 1777119134 | 17.78° C | 67% | 999.3 hPa | 0 mm | - | 21 W/m² | - |
| 1777118829 | 17.78° C | 61% | 998.9 hPa | 0 mm | - | 37 W/m² | - |
| 1777118526 | 17.78° C | 61% | 998.9 hPa | 0 mm | - | 27 W/m² | - |
| 1777118227 | 17.78° C | 61% | 998.9 hPa | 0 mm | - | 29 W/m² | - |
| 1777117924 | 17.78° C | 62% | 999 hPa | 0 mm | - | 22 W/m² | - |
| 1777117620 | 17.78° C | 62% | 998.9 hPa | 0 mm | - | 19 W/m² | - |
| 1777117318 | 17.78° C | 63% | 999 hPa | 0 mm | - | 22 W/m² | - |
| 1777117013 | 17.22° C | 63% | 998.9 hPa | 0 mm | - | 26 W/m² | - |
| 1777116709 | 17.22° C | 63% | 999.1 hPa | 0 mm | - | 24 W/m² | - |
| 1777116405 | 17.22° C | 64% | 999.1 hPa | 0 mm | - | 28 W/m² | - |
| 1777116101 | 16.67° C | 66% | 998.9 hPa | 0 mm | - | 24 W/m² | - |
| 1777115801 | 15.56° C | 69% | 998.9 hPa | 0 mm | - | 23 W/m² | - |
| 1777115497 | 14.44° C | 76% | 998.8 hPa | 0 mm | - | 22 W/m² | - |
| 1777115193 | 14.44° C | 78% | 998.8 hPa | 0 mm | - | 20 W/m² | - |
| 1777114891 | 14.44° C | 78% | 999 hPa | 0 mm | - | 16 W/m² | - |
* Rain latest hour (hover to see other rain measurements)
** Current wind speed in m/s (hover to see current wind gust speed)